createdAt,value
2018-09-03T00:01:34.226Z,8.75
2018-09-03T00:04:03.255Z,11.68
2018-09-03T00:06:32.195Z,7.33
2018-09-03T00:09:01.375Z,11.05
2018-09-03T00:11:30.325Z,7.15
2018-09-03T00:13:59.520Z,14.05
2018-09-03T00:16:28.642Z,9.23
2018-09-03T00:18:57.795Z,9.03
2018-09-03T00:21:27.308Z,6.22
2018-09-03T00:23:56.355Z,4.33
2018-09-03T00:26:26.338Z,9.78
2018-09-03T00:28:55.599Z,7.35
2018-09-03T00:31:29.684Z,9.38
2018-09-03T00:34:04.101Z,10.50
2018-09-03T00:36:38.706Z,8.03
2018-09-03T00:39:13.754Z,5.42
2018-09-03T00:41:48.191Z,10.20
2018-09-03T00:44:22.458Z,5.25
2018-09-03T00:46:59.192Z,11.83
2018-09-03T00:49:28.301Z,7.85
2018-09-03T00:51:57.777Z,11.25
2018-09-03T00:54:27.067Z,9.08
2018-09-03T00:56:56.168Z,5.25
2018-09-03T00:59:25.244Z,6.85
2018-09-03T01:01:54.568Z,9.33
2018-09-03T01:04:23.926Z,9.53
2018-09-03T01:06:52.966Z,8.53
2018-09-03T01:09:21.973Z,8.88
2018-09-03T01:11:50.915Z,12.18
2018-09-03T01:14:20.241Z,7.42
2018-09-03T01:16:49.404Z,9.10
2018-09-03T01:19:18.448Z,11.08
2018-09-03T01:21:47.301Z,11.60
2018-09-03T01:24:16.626Z,7.60
2018-09-03T01:26:45.533Z,11.88
2018-09-03T01:29:14.700Z,14.87
2018-09-03T01:31:43.816Z,9.38
2018-09-03T01:34:12.830Z,10.30
2018-09-03T01:36:41.778Z,10.82
2018-09-03T01:39:11.315Z,10.80
2018-09-03T01:41:40.745Z,6.47
2018-09-03T01:44:09.671Z,8.73
2018-09-03T01:46:38.650Z,6.87
2018-09-03T01:49:08.021Z,7.67
2018-09-03T01:51:37.006Z,8.23
2018-09-03T01:54:06.124Z,8.08
2018-09-03T01:56:35.085Z,14.68
2018-09-03T01:59:04.094Z,10.30
2018-09-03T02:01:33.804Z,12.18
2018-09-03T02:04:02.972Z,8.68
2018-09-03T02:06:31.803Z,12.58
2018-09-03T02:09:00.814Z,9.98
2018-09-03T02:11:29.479Z,9.83
2018-09-03T02:13:59.755Z,5.10
2018-09-03T02:16:29.014Z,5.95
2018-09-03T02:18:58.314Z,8.60
2018-09-03T02:21:27.199Z,9.15
2018-09-03T02:23:55.903Z,7.62
2018-09-03T02:26:25.156Z,9.95
2018-09-03T02:28:53.959Z,11.97
2018-09-03T02:31:23.309Z,10.30
2018-09-03T02:33:53.197Z,10.82
2018-09-03T02:36:22.088Z,9.60
2018-09-03T02:38:51.738Z,15.23
2018-09-03T02:41:20.566Z,9.30
2018-09-03T02:43:49.667Z,17.23
2018-09-03T02:46:19.206Z,12.95
2018-09-03T02:48:48.192Z,10.63
2018-09-03T02:51:17.504Z,11.30
2018-09-03T02:53:47.115Z,14.07
2018-09-03T02:56:16.175Z,10.50
2018-09-03T02:58:44.958Z,14.13
2018-09-03T03:01:14.291Z,9.00
2018-09-03T03:03:43.346Z,13.83
2018-09-03T03:06:12.366Z,11.95
2018-09-03T03:08:43.029Z,18.30
2018-09-03T03:11:12.116Z,14.03
2018-09-03T03:13:40.947Z,8.68
2018-09-03T03:16:10.271Z,10.68
2018-09-03T03:18:39.237Z,12.05
2018-09-03T03:21:08.030Z,7.08
2018-09-03T03:23:37.440Z,11.97
2018-09-03T03:26:07.020Z,11.10
2018-09-03T03:28:36.213Z,10.00
2018-09-03T03:31:05.531Z,10.58
2018-09-03T03:33:34.213Z,13.62
2018-09-03T03:36:03.503Z,10.18
2018-09-03T03:38:32.546Z,8.78
2018-09-03T03:41:02.079Z,13.55
2018-09-03T03:43:31.047Z,13.95
2018-09-03T03:45:59.917Z,10.03
2018-09-03T03:48:28.930Z,14.78
2018-09-03T03:50:58.013Z,15.15
2018-09-03T03:53:27.022Z,14.40
2018-09-03T03:55:56.315Z,13.88
2018-09-03T03:58:25.611Z,13.72
2018-09-03T04:00:54.905Z,12.45
2018-09-03T04:03:24.032Z,16.07
2018-09-03T04:05:53.098Z,13.32
2018-09-03T04:08:22.365Z,15.03
2018-09-03T04:10:51.275Z,16.15
2018-09-03T04:13:21.465Z,19.30
2018-09-03T04:15:50.720Z,26.62
2018-09-03T04:18:18.266Z,21.52
2018-09-03T04:20:47.268Z,19.57
2018-09-03T04:23:17.038Z,16.35
2018-09-03T04:25:45.979Z,16.00
2018-09-03T04:28:15.063Z,15.70
2018-09-03T04:30:44.383Z,16.80
2018-09-03T04:33:13.170Z,16.48
2018-09-03T04:35:41.965Z,20.48
2018-09-03T04:38:11.059Z,16.85
2018-09-03T04:40:40.008Z,14.68
2018-09-03T04:43:09.566Z,20.60
2018-09-03T04:45:38.863Z,24.67
2018-09-03T04:48:07.920Z,23.45
2018-09-03T04:50:36.842Z,19.80
2018-09-03T04:53:06.213Z,18.42
2018-09-03T04:55:35.245Z,21.37
2018-09-03T04:58:04.116Z,22.27
2018-09-03T05:00:33.505Z,16.57
2018-09-03T05:03:02.892Z,28.27
2018-09-03T05:05:32.069Z,20.62
2018-09-03T05:08:01.390Z,18.45
2018-09-03T05:10:30.195Z,14.68
2018-09-03T05:12:59.167Z,19.77
2018-09-03T05:15:28.529Z,24.85
2018-09-03T05:17:57.603Z,14.03
2018-09-03T05:20:26.786Z,19.87
2018-09-03T05:22:56.661Z,21.87
2018-09-03T05:25:25.771Z,25.00
2018-09-03T05:27:54.811Z,23.85
2018-09-03T05:30:24.203Z,36.03
2018-09-03T05:32:53.304Z,31.45
2018-09-03T05:35:22.405Z,22.40
2018-09-03T05:37:51.507Z,18.70
2018-09-03T05:40:20.594Z,24.05
2018-09-03T05:42:49.885Z,16.37
2018-09-03T05:45:19.345Z,27.70
2018-09-03T05:47:48.199Z,20.48
2018-09-03T05:50:17.833Z,30.80
2018-09-03T05:52:47.341Z,30.30
2018-09-03T05:55:16.960Z,28.20
2018-09-03T05:57:45.905Z,38.23
2018-09-03T06:00:15.319Z,26.12
2018-09-03T06:02:45.025Z,29.35
2018-09-03T06:05:14.074Z,28.73
2018-09-03T06:07:43.094Z,24.50
2018-09-03T06:10:11.788Z,26.62
2018-09-03T06:12:41.071Z,26.10
2018-09-03T06:15:10.560Z,29.27
2018-09-03T06:17:39.636Z,20.62
2018-09-03T06:20:08.521Z,26.73
2018-09-03T06:22:38.633Z,35.90
2018-09-03T06:25:08.940Z,34.40
2018-09-03T06:27:37.825Z,31.65
2018-09-03T06:30:07.067Z,20.92
2018-09-03T06:32:35.930Z,22.17
2018-09-03T06:35:05.530Z,14.95
2018-09-03T06:37:35.835Z,32.13
2018-09-03T06:40:05.031Z,20.90
2018-09-03T06:42:33.999Z,19.50
2018-09-03T06:45:03.258Z,25.08
2018-09-03T06:47:32.159Z,22.45
2018-09-03T06:50:01.326Z,19.70
2018-09-03T06:52:30.473Z,22.35
2018-09-03T06:54:59.354Z,26.70
2018-09-03T06:57:28.367Z,18.25
2018-09-03T06:59:57.527Z,15.03
2018-09-03T07:02:26.791Z,14.18
2018-09-03T07:04:56.570Z,16.55
2018-09-03T07:07:25.987Z,12.95
2018-09-03T07:09:55.171Z,22.73
2018-09-03T07:12:23.908Z,16.20
2018-09-03T07:14:53.090Z,11.57
2018-09-03T07:17:22.527Z,15.65
2018-09-03T07:19:51.642Z,21.12
2018-09-03T07:22:21.174Z,16.32
2018-09-03T07:24:50.064Z,17.20
2018-09-03T07:27:19.350Z,15.80
2018-09-03T07:29:48.540Z,17.35
2018-09-03T07:32:17.725Z,14.50
2018-09-03T07:34:47.569Z,16.97
2018-09-03T07:37:17.093Z,12.80
2018-09-03T07:39:46.125Z,15.70
2018-09-03T07:42:15.073Z,14.65
2018-09-03T07:44:44.659Z,17.50
2018-09-03T07:47:13.573Z,10.32
2018-09-03T07:49:42.244Z,12.98
2018-09-03T07:52:11.792Z,10.55
2018-09-03T07:54:41.275Z,10.45
2018-09-03T07:57:10.165Z,16.00
2018-09-03T07:59:39.383Z,13.60
2018-09-03T08:02:08.655Z,24.72
2018-09-03T08:04:37.627Z,10.43
2018-09-03T08:07:06.846Z,13.45
2018-09-03T08:09:35.827Z,11.22
2018-09-03T08:12:04.583Z,16.62
2018-09-03T08:14:33.707Z,24.27
2018-09-03T08:17:02.790Z,10.50
2018-09-03T08:19:31.927Z,11.43
2018-09-03T08:22:04.148Z,20.82
2018-09-03T08:24:33.201Z,15.20
2018-09-03T08:27:02.234Z,11.78
2018-09-03T08:29:31.491Z,14.05
2018-09-03T08:32:00.505Z,10.45
2018-09-03T08:34:30.076Z,16.05
2018-09-03T08:37:01.478Z,19.80
2018-09-03T08:39:30.523Z,12.65
2018-09-03T08:42:03.019Z,13.88
2018-09-03T08:44:31.853Z,12.40
2018-09-03T08:47:01.063Z,15.05
2018-09-03T08:49:30.408Z,16.05
2018-09-03T08:51:59.270Z,13.50
2018-09-03T08:54:30.409Z,9.50
2018-09-03T08:56:59.515Z,7.12
2018-09-03T08:59:28.489Z,10.88
2018-09-03T09:01:57.309Z,14.63
2018-09-03T09:04:26.704Z,11.63
2018-09-03T09:06:55.524Z,16.25
2018-09-03T09:09:24.503Z,9.25
2018-09-03T09:11:53.907Z,15.45
2018-09-03T09:14:22.785Z,13.58
2018-09-03T09:16:51.811Z,9.28
2018-09-03T09:19:21.042Z,14.40
2018-09-03T09:21:50.190Z,7.80
2018-09-03T09:24:19.317Z,14.10
2018-09-03T09:26:48.626Z,10.48
2018-09-03T09:29:17.531Z,6.95
2018-09-03T09:31:46.653Z,9.50
2018-09-03T09:34:16.084Z,12.63
2018-09-03T09:36:45.392Z,13.45
2018-09-03T09:39:14.697Z,11.53
2018-09-03T09:41:43.564Z,19.80
2018-09-03T09:44:12.443Z,10.25
2018-09-03T09:46:41.434Z,11.60
2018-09-03T09:49:10.636Z,8.03
2018-09-03T09:51:39.644Z,14.38
2018-09-03T09:54:08.650Z,8.95
2018-09-03T09:56:38.615Z,12.50
2018-09-03T09:59:08.483Z,5.33
2018-09-03T10:01:39.183Z,13.50
2018-09-03T10:04:08.575Z,16.02
2018-09-03T10:06:37.903Z,9.58
2018-09-03T10:09:08.505Z,8.43
2018-09-03T10:11:38.471Z,13.43
2018-09-03T10:14:07.741Z,17.17
2018-09-03T10:16:36.580Z,10.58
2018-09-03T10:19:06.175Z,10.05
2018-09-03T10:21:35.293Z,11.68
2018-09-03T10:24:06.361Z,10.93
2018-09-03T10:26:35.716Z,12.53
2018-09-03T10:29:05.005Z,12.07
2018-09-03T10:31:34.554Z,13.78
2018-09-03T10:34:03.623Z,8.50
2018-09-03T10:36:32.755Z,8.70
2018-09-03T10:39:01.962Z,11.78
2018-09-03T10:41:30.874Z,9.60
2018-09-03T10:43:59.978Z,11.90
2018-09-03T10:46:29.367Z,15.75
2018-09-03T10:48:58.494Z,18.40
2018-09-03T10:51:27.603Z,12.93
2018-09-03T10:53:56.820Z,6.72
2018-09-03T10:56:25.900Z,11.38
2018-09-03T10:58:54.695Z,14.25
2018-09-03T11:01:23.690Z,13.25
2018-09-03T11:03:52.410Z,10.03
2018-09-03T11:06:21.267Z,12.28
2018-09-03T11:08:50.818Z,12.28
2018-09-03T11:11:19.749Z,17.80
2018-09-03T11:13:48.763Z,13.38
2018-09-03T11:16:17.944Z,14.75
2018-09-03T11:18:46.750Z,12.10
2018-09-03T11:21:15.976Z,12.50
2018-09-03T11:23:45.272Z,13.83
2018-09-03T11:26:14.490Z,13.18
2018-09-03T11:28:43.787Z,10.43
2018-09-03T11:31:13.274Z,20.10
2018-09-03T11:33:42.367Z,10.93
2018-09-03T11:36:11.532Z,9.00
2018-09-03T11:38:40.877Z,12.45
2018-09-03T11:41:10.050Z,10.58
2018-09-03T11:43:38.731Z,12.23
2018-09-03T11:46:08.162Z,10.70
2018-09-03T11:48:37.335Z,13.05
2018-09-03T11:51:06.456Z,9.58
2018-09-03T11:53:35.579Z,6.87
2018-09-03T11:56:04.658Z,13.93
2018-09-03T11:58:33.767Z,12.15
2018-09-03T12:01:03.766Z,14.25
2018-09-03T12:03:32.938Z,14.85
2018-09-03T12:06:02.140Z,19.02
2018-09-03T12:08:31.211Z,10.58
2018-09-03T12:11:01.297Z,18.95
2018-09-03T12:13:30.361Z,7.70
2018-09-03T12:16:06.621Z,12.45
2018-09-03T12:18:35.768Z,11.40
2018-09-03T12:21:05.252Z,13.98
2018-09-03T12:23:34.767Z,10.43
2018-09-03T12:26:04.439Z,7.53
2018-09-03T12:28:33.839Z,10.65
2018-09-03T12:31:03.066Z,6.55
2018-09-03T12:33:32.075Z,11.48
2018-09-03T12:36:01.340Z,11.05
2018-09-03T12:38:31.203Z,7.45
2018-09-03T12:41:00.235Z,8.53
2018-09-03T12:43:29.461Z,6.55
2018-09-03T12:46:07.782Z,13.62
2018-09-03T12:48:37.068Z,10.78
2018-09-03T12:51:06.934Z,6.97
2018-09-03T12:53:36.561Z,8.55
2018-09-03T12:56:05.734Z,6.80
2018-09-03T12:58:34.936Z,12.93
2018-09-03T13:01:05.235Z,18.17
2018-09-03T13:03:34.178Z,20.30
2018-09-03T13:06:03.112Z,16.85
2018-09-03T13:08:33.035Z,13.55
2018-09-03T13:11:01.900Z,14.50
2018-09-03T13:13:30.751Z,13.18
2018-09-03T13:15:59.827Z,12.40
2018-09-03T13:18:28.995Z,11.12
2018-09-03T13:20:57.994Z,14.78
2018-09-03T13:23:27.370Z,17.17
2018-09-03T13:25:56.774Z,14.10
2018-09-03T13:28:25.702Z,10.00
2018-09-03T13:30:54.981Z,7.20
2018-09-03T13:33:24.173Z,15.10
2018-09-03T13:35:53.263Z,16.17
2018-09-03T13:38:22.606Z,15.65
2018-09-03T13:40:51.856Z,11.85
2018-09-03T13:43:20.785Z,14.47
2018-09-03T13:45:50.195Z,13.78
2018-09-03T13:48:19.316Z,10.18
2018-09-03T13:50:48.906Z,16.27
2018-09-03T13:53:17.875Z,11.48
2018-09-03T13:55:46.787Z,16.70
2018-09-03T13:58:15.685Z,21.15
2018-09-03T14:00:45.323Z,14.38
2018-09-03T14:03:14.577Z,11.60
2018-09-03T14:05:43.487Z,10.85
2018-09-03T14:08:13.003Z,17.25
2018-09-03T14:10:42.137Z,18.25
2018-09-03T14:13:11.999Z,15.85
2018-09-03T14:15:48.456Z,19.23
2018-09-03T14:18:17.351Z,21.85
2018-09-03T14:20:46.387Z,11.97
2018-09-03T14:23:15.771Z,14.60
2018-09-03T14:25:44.843Z,14.87
2018-09-03T14:28:13.656Z,16.90
2018-09-03T14:30:42.713Z,13.93
2018-09-03T14:33:11.757Z,10.75
2018-09-03T14:35:41.144Z,12.58
2018-09-03T14:38:10.771Z,9.28
2018-09-03T14:40:40.560Z,10.38
2018-09-03T14:45:45.930Z,13.43
2018-09-03T14:48:14.822Z,10.68
2018-09-03T14:50:43.712Z,10.13
2018-09-03T14:53:13.370Z,7.53
2018-09-03T14:55:42.496Z,7.10
2018-09-03T14:58:11.974Z,11.97
2018-09-03T15:00:41.256Z,10.15
2018-09-03T15:03:10.226Z,12.18
2018-09-03T15:05:39.210Z,10.48
2018-09-03T15:08:08.781Z,10.93
2018-09-03T15:10:37.582Z,19.10
2018-09-03T15:13:06.495Z,12.03
2018-09-03T15:15:35.291Z,8.93
2018-09-03T15:18:04.354Z,8.25
2018-09-03T15:20:33.822Z,4.22
2018-09-03T15:23:03.115Z,11.33
2018-09-03T15:25:31.934Z,16.45
2018-09-03T15:28:00.869Z,11.88
2018-09-03T15:30:30.194Z,18.50
2018-09-03T15:32:59.280Z,14.40
2018-09-03T15:35:28.477Z,14.18
2018-09-03T15:37:57.721Z,8.30
2018-09-03T15:40:26.746Z,13.15
2018-09-03T15:42:55.601Z,14.28
2018-09-03T15:45:24.948Z,8.63
2018-09-03T15:47:53.903Z,13.68
2018-09-03T15:50:23.030Z,7.10
2018-09-03T15:52:51.991Z,8.53
2018-09-03T15:55:20.724Z,15.32
2018-09-03T15:57:50.141Z,9.60
2018-09-03T16:00:19.393Z,16.75
2018-09-03T16:02:48.249Z,17.05
2018-09-03T16:05:17.121Z,14.55
2018-09-03T16:07:46.968Z,15.20
2018-09-03T16:10:16.114Z,16.00
2018-09-03T16:12:45.033Z,14.95
2018-09-03T16:15:14.059Z,12.63
2018-09-03T16:17:42.786Z,12.73
2018-09-03T16:20:11.594Z,18.17
2018-09-03T16:22:41.227Z,14.47
2018-09-03T16:25:10.254Z,20.08
2018-09-03T16:27:39.227Z,17.20
2018-09-03T16:30:09.356Z,6.55
2018-09-03T16:32:38.240Z,16.67
2018-09-03T16:35:07.503Z,11.08
2018-09-03T16:37:36.658Z,10.58
2018-09-03T16:40:05.980Z,12.37
2018-09-03T16:42:34.998Z,18.87
2018-09-03T16:45:04.563Z,10.50
2018-09-03T16:47:33.603Z,9.58
2018-09-03T16:50:03.308Z,12.03
2018-09-03T16:52:32.442Z,16.45
2018-09-03T16:55:01.524Z,16.97
2018-09-03T16:57:30.620Z,14.85
2018-09-03T16:59:59.955Z,8.90
2018-09-03T17:02:28.799Z,17.75
2018-09-03T17:04:57.703Z,23.18
2018-09-03T17:07:26.590Z,13.40
2018-09-03T17:09:55.411Z,15.78
2018-09-03T17:12:24.911Z,13.58
2018-09-03T17:14:53.871Z,16.40
2018-09-03T17:17:23.074Z,17.85
2018-09-03T17:19:52.578Z,16.20
2018-09-03T17:22:22.266Z,23.00
2018-09-03T17:24:51.430Z,27.05
2018-09-03T17:27:20.267Z,15.88
2018-09-03T17:29:51.075Z,11.18
2018-09-03T17:32:20.179Z,12.75
2018-09-03T17:34:49.131Z,18.55
2018-09-03T17:37:18.423Z,13.00
2018-09-03T17:39:47.498Z,14.68
2018-09-03T17:42:16.618Z,16.07
2018-09-03T17:44:45.698Z,13.72
2018-09-03T17:47:14.606Z,13.72
2018-09-03T17:49:43.540Z,14.83
2018-09-03T17:52:12.935Z,19.32
2018-09-03T17:54:41.790Z,15.28
2018-09-03T17:57:10.570Z,13.25
2018-09-03T17:59:39.852Z,18.48
2018-09-03T18:02:08.782Z,15.72
2018-09-03T18:04:37.661Z,18.23
2018-09-03T18:07:07.048Z,18.27
2018-09-03T18:09:36.075Z,17.27
2018-09-03T18:12:05.235Z,12.60
2018-09-03T18:14:34.914Z,17.60
2018-09-03T18:17:03.747Z,15.40
2018-09-03T18:19:32.631Z,20.90
2018-09-03T18:22:02.150Z,22.32
2018-09-03T18:24:31.167Z,17.60
2018-09-03T18:26:59.979Z,17.95
2018-09-03T18:29:29.191Z,24.20
2018-09-03T18:31:58.247Z,19.82
2018-09-03T18:34:27.239Z,21.48
2018-09-03T18:36:57.038Z,26.77
2018-09-03T18:39:26.051Z,24.18
2018-09-03T18:41:55.406Z,20.10
2018-09-03T18:44:25.079Z,25.23
2018-09-03T18:46:54.360Z,26.37
2018-09-03T18:49:23.137Z,13.55
2018-09-03T18:51:52.971Z,11.80
2018-09-03T18:54:22.158Z,14.93
2018-09-03T18:56:51.050Z,15.58
2018-09-03T18:59:20.457Z,11.85
2018-09-03T19:01:49.651Z,16.97
2018-09-03T19:04:18.548Z,11.22
2018-09-03T19:06:48.126Z,12.98
2018-09-03T19:09:16.961Z,18.45
2018-09-03T19:11:45.941Z,17.37
2018-09-03T19:14:15.367Z,25.27
2018-09-03T19:16:44.231Z,13.55
2018-09-03T19:19:13.435Z,18.40
2018-09-03T19:21:42.850Z,13.78
2018-09-03T19:24:11.638Z,14.33
2018-09-03T19:26:40.306Z,18.48
2018-09-03T19:29:09.640Z,16.35
2018-09-03T19:31:38.927Z,12.70
2018-09-03T19:34:07.907Z,16.15
2018-09-03T19:36:37.084Z,15.83
2018-09-03T19:39:06.843Z,11.83
2018-09-03T19:41:35.814Z,11.93
2018-09-03T19:44:04.644Z,13.15
2018-09-03T19:46:33.883Z,16.23
2018-09-03T19:49:02.912Z,18.32
2018-09-03T19:51:32.031Z,16.27
2018-09-03T19:54:00.987Z,17.82
2018-09-03T19:56:29.889Z,15.83
2018-09-03T19:58:59.955Z,20.05
2018-09-03T20:01:28.941Z,19.35
2018-09-03T20:03:57.583Z,27.30
2018-09-03T20:06:26.822Z,20.88
2018-09-03T20:08:55.735Z,16.40
2018-09-03T20:11:25.179Z,15.78
2018-09-03T20:13:54.307Z,16.25
2018-09-03T20:16:28.096Z,18.35
2018-09-03T20:18:57.003Z,23.90
2018-09-03T20:21:25.920Z,25.92
2018-09-03T20:23:55.050Z,26.02
2018-09-03T20:26:24.080Z,30.05
2018-09-03T20:28:52.971Z,22.90
2018-09-03T20:31:21.963Z,23.20
2018-09-03T20:33:51.182Z,23.52
2018-09-03T20:36:20.157Z,16.75
2018-09-03T20:38:49.119Z,17.17
2018-09-03T20:41:18.454Z,17.85
2018-09-03T20:43:47.253Z,20.15
2018-09-03T20:46:16.360Z,25.88
2018-09-03T20:48:45.963Z,19.32
2018-09-03T20:51:14.926Z,17.52
2018-09-03T20:53:44.038Z,21.65
2018-09-03T20:56:13.609Z,24.32
2018-09-03T20:58:42.616Z,16.67
2018-09-03T21:01:11.320Z,16.85
2018-09-03T21:03:40.742Z,17.35
2018-09-03T21:06:09.719Z,21.33
2018-09-03T21:08:38.409Z,20.43
2018-09-03T21:11:07.826Z,15.78
2018-09-03T21:13:36.834Z,16.85
2018-09-03T21:16:05.808Z,16.95
2018-09-03T21:18:35.325Z,22.37
2018-09-03T21:21:04.398Z,17.40
2018-09-03T21:23:33.087Z,18.57
2018-09-03T21:26:02.095Z,18.27
2018-09-03T21:28:31.059Z,19.37
2018-09-03T21:31:00.084Z,18.35
2018-09-03T21:33:29.359Z,17.12
2018-09-03T21:35:58.343Z,18.30
2018-09-03T21:38:27.226Z,17.05
2018-09-03T21:40:56.994Z,20.30
2018-09-03T21:43:25.884Z,16.15
2018-09-03T21:45:54.594Z,16.35
2018-09-03T21:48:23.593Z,18.92
2018-09-03T21:50:53.215Z,19.75
2018-09-03T21:53:22.283Z,19.00
2018-09-03T21:55:51.852Z,20.97
2018-09-03T21:58:20.864Z,19.85
2018-09-03T22:00:49.846Z,18.85
2018-09-03T22:03:18.970Z,18.85
2018-09-03T22:05:47.928Z,21.33
2018-09-03T22:08:16.856Z,22.93
2018-09-03T22:10:46.236Z,23.25
2018-09-03T22:13:15.420Z,23.12
2018-09-03T22:15:44.335Z,22.32
2018-09-03T22:18:13.549Z,25.00
2018-09-03T22:20:42.653Z,18.95
2018-09-03T22:23:11.819Z,22.98
2018-09-03T22:25:40.879Z,23.87
2018-09-03T22:28:10.443Z,26.57
2018-09-03T22:30:39.657Z,19.30
2018-09-03T22:33:08.760Z,24.25
2018-09-03T22:35:37.714Z,20.25
2018-09-03T22:38:06.709Z,17.98
2018-09-03T22:40:36.008Z,18.57
2018-09-03T22:43:04.924Z,20.95
2018-09-03T22:45:33.996Z,25.52
2018-09-03T22:48:03.079Z,23.87
2018-09-03T22:50:31.915Z,17.57
2018-09-03T22:53:00.784Z,14.80
2018-09-03T22:55:30.242Z,18.35
2018-09-03T22:57:58.962Z,19.60
2018-09-03T23:00:28.001Z,22.60
2018-09-03T23:02:57.015Z,19.60
2018-09-03T23:05:26.278Z,19.98
2018-09-03T23:07:55.873Z,23.52
2018-09-03T23:10:25.446Z,23.35
2018-09-03T23:12:54.848Z,23.85
2018-09-03T23:15:23.804Z,24.43
2018-09-03T23:17:52.943Z,21.23
2018-09-03T23:20:21.879Z,21.77
2018-09-03T23:22:50.979Z,20.25
2018-09-03T23:25:20.328Z,22.55
2018-09-03T23:27:49.476Z,21.05
2018-09-03T23:30:18.783Z,21.73
2018-09-03T23:32:48.087Z,19.50
2018-09-03T23:35:17.075Z,24.23
2018-09-03T23:37:45.970Z,18.40
2018-09-03T23:40:14.682Z,22.70
2018-09-03T23:42:43.973Z,21.70
2018-09-03T23:45:12.809Z,20.82
2018-09-03T23:47:41.967Z,24.05
2018-09-03T23:50:10.918Z,28.57
2018-09-03T23:52:40.035Z,19.87
2018-09-03T23:55:09.356Z,24.57
2018-09-03T23:57:38.141Z,21.75
